Time;durP1;ratioP1;P1;durP2;ratioP2;P2;SDS_P1;SDS_P2;PMS_P1;PMS_P2;Temp;Humidity;BMP_temperature;BMP_pressure;BME280_temperature;BME280_humidity;BME280_pressure;Samples;Min_cycle;Max_cycle;Signal;HPM_P1;HPM_P2
2022/04/21 04:14:15;;;;;;;46.28;26.23;;;;;;;1.15;100.00;100111.69;5560404;32;213598;-88
2022/04/21 04:17:19;;;;;;;42.70;25.40;;;;;;;1.13;100.00;100114.31;5545042;32;34773;-88
2022/04/21 04:20:21;;;;;;;41.42;25.23;;;;;;;1.19;100.00;100119.44;5546253;32;34897;-88
2022/04/21 04:23:24;;;;;;;41.33;23.80;;;;;;;1.25;100.00;100115.00;5544883;32;34156;-88
2022/04/21 04:26:27;;;;;;;42.42;24.95;;;;;;;1.30;100.00;100115.78;5544108;32;34092;-88
2022/04/21 04:29:30;;;;;;;38.55;23.90;;;;;;;1.43;100.00;100113.84;5544934;32;34164;-86
2022/04/21 04:32:33;;;;;;;34.10;22.73;;;;;;;1.54;100.00;100114.53;5539970;32;33354;-87
2022/04/21 04:35:36;;;;;;;33.30;21.58;;;;;;;1.66;100.00;100118.69;5544304;32;33739;-87
2022/04/21 04:38:40;;;;;;;32.28;20.75;;;;;;;1.78;100.00;100122.88;5545526;32;33317;-87
2022/04/21 04:48:26;;;;;;;33.60;21.33;;;;;;;2.36;96.48;100116.56;5545139;32;33738;-86
2022/04/21 04:51:29;;;;;;;29.17;20.88;;;;;;;2.61;93.00;100121.31;5549145;32;32619;-86
2022/04/21 04:54:32;;;;;;;30.42;21.15;;;;;;;2.58;93.72;100111.75;5543813;32;33210;-85
2022/04/21 04:57:34;;;;;;;31.23;20.83;;;;;;;2.97;90.27;100117.03;5553669;32;34769;-84
2022/04/21 05:00:37;;;;;;;32.33;20.58;;;;;;;3.23;88.38;100126.03;5545958;32;32517;-85
2022/04/21 05:03:40;;;;;;;33.80;21.67;;;;;;;3.45;87.58;100127.28;5543902;32;32500;-85
2022/04/21 05:06:50;;;;;;;31.10;21.60;;;;;;;3.87;84.98;100132.37;5545827;32;32532;-84
2022/04/21 05:09:53;;;;;;;27.65;20.00;;;;;;;4.08;83.11;100143.22;5545058;32;33434;-84
2022/04/21 05:12:57;;;;;;;30.40;20.83;;;;;;;4.38;81.98;100137.19;5542769;32;34705;-86
2022/04/21 05:15:59;;;;;;;32.42;20.88;;;;;;;4.89;79.46;100142.72;5553780;32;33460;-87
2022/04/21 05:19:14;;;;;;;29.45;20.52;;;;;;;5.43;78.14;100132.31;5557714;32;34029;-87
2022/04/21 05:22:17;;;;;;;31.40;21.48;;;;;;;7.45;71.86;100125.09;5528836;32;34541;-85
2022/04/21 05:25:20;;;;;;;28.58;20.48;;;;;;;8.91;62.91;100128.50;5526968;32;33261;-85
2022/04/21 05:28:24;;;;;;;32.05;19.75;;;;;;;10.37;58.21;100118.66;5531383;32;33819;-85
2022/04/21 05:31:27;;;;;;;25.75;19.80;;;;;;;11.83;54.51;100124.81;5530776;32;33893;-85
2022/04/21 05:34:31;;;;;;;28.75;21.90;;;;;;;12.13;51.04;100127.47;5528126;32;32396;-85
2022/04/21 05:37:35;;;;;;;31.40;23.92;;;;;;;11.68;51.14;100123.91;5513463;32;32266;-85
2022/04/21 05:40:38;;;;;;;31.75;23.52;;;;;;;10.65;54.00;100126.94;5532481;32;32667;-85
2022/04/21 05:43:43;;;;;;;31.15;24.45;;;;;;;10.64;54.16;100136.72;5530070;32;32755;-85
2022/04/21 05:46:46;;;;;;;38.50;26.90;;;;;;;11.57;53.32;100125.37;5528729;32;32454;-85
2022/04/21 05:49:49;;;;;;;36.35;26.87;;;;;;;11.85;51.47;100117.59;5526548;32;33261;-85
2022/04/21 05:52:52;;;;;;;36.25;27.20;;;;;;;13.33;47.11;100113.88;5528202;32;32257;-84
2022/04/21 05:55:55;;;;;;;39.00;27.67;;;;;;;13.36;46.07;100113.66;5529421;32;32375;-85
2022/04/21 05:59:01;;;;;;;41.92;28.50;;;;;;;13.85;46.02;100109.56;5529968;32;32730;-85
2022/04/21 06:02:04;;;;;;;42.72;29.25;;;;;;;12.93;47.66;100117.31;5533831;32;32592;-86
2022/04/21 06:05:08;;;;;;;39.35;28.92;;;;;;;13.82;45.51;100112.44;5530874;32;33894;-86
2022/04/21 06:08:11;;;;;;;43.60;29.85;;;;;;;14.19;44.42;100111.75;5530668;32;33633;-86
2022/04/21 06:11:14;;;;;;;38.58;29.80;;;;;;;15.61;40.87;100107.88;5521746;32;33590;-86
2022/04/21 06:14:17;;;;;;;41.42;31.25;;;;;;;16.20;39.76;100107.06;5513220;32;33646;-86
2022/04/21 06:17:21;;;;;;;40.47;30.17;;;;;;;15.96;40.05;100111.53;5515027;32;33832;-87
2022/04/21 06:20:24;;;;;;;41.70;29.90;;;;;;;16.59;38.79;100110.22;5523241;32;33651;-87
2022/04/21 06:23:28;;;;;;;42.45;31.58;;;;;;;16.34;38.92;100109.50;5516679;32;32406;-85
2022/04/21 06:26:42;;;;;;;43.38;32.05;;;;;;;16.10;40.44;100107.75;5521691;32;34004;-85
2022/04/21 06:29:46;;;;;;;34.65;28.77;;;;;;;17.81;36.02;100093.25;5531100;32;34460;-86
2022/04/21 06:32:49;;;;;;;38.20;30.35;;;;;;;17.14;36.30;100095.22;5533607;32;33527;-90
2022/04/21 06:35:53;;;;;;;45.08;32.05;;;;;;;15.93;38.32;100101.03;5529634;32;33609;-89
2022/04/21 06:38:55;;;;;;;38.20;32.03;;;;;;;16.75;37.74;100098.31;5525711;32;33592;-91
2022/04/21 06:41:58;;;;;;;38.80;29.92;;;;;;;16.75;37.91;100092.94;5528196;32;34596;-87
2022/04/21 06:48:24;;;;;;;40.00;31.15;;;;;;;18.74;33.61;100094.31;5527113;32;32572;-87
2022/04/21 06:51:27;;;;;;;35.60;31.05;;;;;;;18.91;32.95;100098.19;5514546;32;32820;-87
2022/04/21 06:54:30;;;;;;;43.10;32.00;;;;;;;18.99;33.28;100091.13;5524255;32;33574;-87
2022/04/21 06:57:33;;;;;;;37.15;31.27;;;;;;;20.41;31.04;100086.22;5521660;32;34288;-86
2022/04/21 07:00:37;;;;;;;36.30;28.85;;;;;;;20.99;30.45;100078.03;5530963;32;32709;-86
2022/04/21 07:03:40;;;;;;;36.80;28.73;;;;;;;21.32;30.18;100077.53;5528467;32;32662;-86
2022/04/21 07:06:43;;;;;;;42.25;31.92;;;;;;;19.49;31.89;100086.69;5529438;32;34449;-85
2022/04/21 07:09:46;;;;;;;41.22;32.20;;;;;;;20.15;31.29;100081.50;5529279;32;33396;-85
2022/04/21 07:12:49;;;;;;;40.20;31.17;;;;;;;19.95;31.71;100080.66;5529075;32;32466;-85
2022/04/21 07:15:52;;;;;;;39.30;29.08;;;;;;;19.28;32.06;100080.56;5531181;32;33970;-87
2022/04/21 07:18:55;;;;;;;43.33;28.05;;;;;;;18.63;32.95;100082.69;5527946;32;33137;-85
2022/04/21 07:21:58;;;;;;;29.98;22.62;;;;;;;19.46;31.50;100084.25;5514689;32;33148;-86
2022/04/21 07:25:06;;;;;;;33.78;24.15;;;;;;;19.71;29.92;100073.06;5513395;32;33606;-86
2022/04/21 07:28:15;;;;;;;33.58;27.42;;;;;;;19.34;30.89;100086.25;5511013;32;34501;-85
2022/04/21 07:31:18;;;;;;;28.20;22.95;;;;;;;20.08;31.17;100083.09;5517186;32;32996;-88
2022/04/21 07:34:21;;;;;;;23.73;21.23;;;;;;;19.35;30.93;100073.63;5518170;32;34497;-88
2022/04/21 07:37:24;;;;;;;24.00;21.17;;;;;;;;;;5512874;32;32186;-86
2022/04/21 07:40:26;;;;;;;27.37;23.02;;;;;;;20.18;30.09;100070.44;5526299;32;34646;-87
2022/04/21 07:43:32;;;;;;;28.48;21.35;;;;;;;19.70;29.60;100063.31;5522505;32;32945;-88
2022/04/21 07:46:37;;;;;;;23.17;19.20;;;;;;;20.44;29.88;100075.19;5524107;32;32442;-88
2022/04/21 07:49:46;;;;;;;23.15;19.73;;;;;;;21.36;27.58;100062.69;5513611;32;33191;-88
2022/04/21 07:56:21;;;;;;;19.83;15.27;;;;;;;19.67;30.51;100061.75;5511645;32;32368;-88
2022/04/21 07:59:23;;;;;;;21.25;16.95;;;;;;;18.76;31.45;100060.94;5521145;32;33841;-88
2022/04/21 08:02:26;;;;;;;20.00;16.92;;;;;;;19.53;30.01;100065.72;5518224;32;35011;-90
2022/04/21 08:05:29;;;;;;;21.77;16.90;;;;;;;20.39;29.64;100068.50;5511580;32;34414;-91
2022/04/21 08:08:32;;;;;;;18.45;13.93;;;;;;;20.08;29.66;100055.31;5523262;32;32370;-91
2022/04/21 08:11:35;;;;;;;14.90;13.23;;;;;;;20.20;27.95;100046.91;5535185;32;33503;-92
2022/04/21 08:14:39;;;;;;;16.23;13.27;;;;;;;20.86;27.43;100051.41;5532409;32;33200;-88
2022/04/21 08:17:42;;;;;;;18.17;14.13;;;;;;;21.21;26.93;100046.22;5555558;32;34061;-87
2022/04/21 08:20:47;;;;;;;15.50;12.77;;;;;;;20.15;26.87;100053.72;5557040;32;34088;-86
2022/04/21 08:23:52;;;;;;;14.07;12.23;;;;;;;20.00;27.05;100047.94;5550201;32;33371;-90
2022/04/21 08:33:53;;;;;;;11.07;9.93;;;;;;;21.03;25.60;100046.22;5550349;32;33874;-87
2022/04/21 08:36:56;;;;;;;12.75;9.93;;;;;;;20.77;25.93;100039.66;5528276;32;34554;-87
2022/04/21 08:39:59;;;;;;;16.77;12.20;;;;;;;20.50;26.35;100036.00;5567805;32;34110;-87
2022/04/21 08:43:14;;;;;;;23.00;12.32;;;;;;;20.70;26.96;100039.44;5553245;32;34457;-86
2022/04/21 08:46:20;;;;;;;15.27;11.90;;;;;;;21.32;27.12;100039.75;5549553;32;34694;-86
2022/04/21 08:49:25;;;;;;;18.75;11.68;;;;;;;21.44;28.04;100035.81;5550610;32;33761;-84
2022/04/21 08:52:29;;;;;;;15.45;11.07;;;;;;;22.44;26.60;100037.28;5552260;32;34209;-84
2022/04/21 08:55:33;;;;;;;16.80;11.30;;;;;;;21.33;27.08;100034.22;5539822;32;32905;-86
2022/04/21 08:58:36;;;;;;;10.80;9.70;;;;;;;20.76;27.00;100040.66;5523229;32;32420;-85
2022/04/21 09:01:38;;;;;;;11.70;8.82;;;;;;;21.74;24.96;100044.50;5536692;32;33905;-84
2022/04/21 09:04:42;;;;;;;11.10;8.52;;;;;;;21.33;25.18;100038.75;5571659;32;34713;-84
2022/04/21 09:07:50;;;;;;;9.52;7.90;;;;;;;22.00;24.42;100040.97;5557986;32;34106;-85
2022/04/21 09:11:15;;;;;;;7.22;6.53;;;;;;;21.68;24.22;100037.00;5553229;32;32623;-88
2022/04/21 09:14:20;;;;;;;7.22;5.97;;;;;;;21.43;23.98;100041.34;5572299;32;34621;-87
2022/04/21 09:17:22;;;;;;;9.68;6.10;;;;;;;21.49;23.01;100043.44;5568056;32;34207;-86
2022/04/21 09:20:29;;;;;;;5.68;4.87;;;;;;;21.30;24.02;100039.03;5545121;32;35339;-87
2022/04/21 09:23:33;;;;;;;6.47;5.87;;;;;;;21.92;23.83;100041.75;5557336;32;33868;-86
2022/04/21 09:26:45;;;;;;;9.73;5.60;;;;;;;22.89;22.59;100045.25;5534815;32;32800;-87
2022/04/21 09:29:49;;;;;;;6.30;5.12;;;;;;;20.84;25.78;100046.22;5568343;32;32567;-87
2022/04/21 09:32:57;;;;;;;6.12;5.45;;;;;;;21.26;25.30;100043.91;5584055;31;34323;-87
2022/04/21 09:36:05;;;;;;;6.53;5.53;;;;;;;22.28;23.67;100038.06;5555745;32;33059;-87
2022/04/21 09:39:16;;;;;;;6.18;5.57;;;;;;;22.19;22.90;100039.88;5569844;32;34531;-86
2022/04/21 09:42:26;;;;;;;9.10;5.50;;;;;;;20.63;23.96;100043.75;5543384;32;34218;-87
2022/04/21 09:48:59;;;;;;;5.22;4.65;;;;;;;19.86;25.82;100047.37;5532833;32;33094;-89
2022/04/21 09:52:03;;;;;;;6.50;5.72;;;;;;;20.68;24.44;100049.53;5539435;32;32612;-90
2022/04/21 09:55:24;;;;;;;6.30;5.55;;;;;;;21.42;23.77;100040.50;5562846;32;33636;-89
2022/04/21 09:58:36;;;;;;;9.98;6.15;;;;;;;22.10;22.90;100038.16;5555368;32;34415;-90
2022/04/21 10:05:24;;;;;;;7.80;6.97;;;;;;;24.32;20.82;100037.78;2448475;30;20084;-90
2022/04/21 10:15:58;;;;;;;7.20;6.50;;;;;;;24.17;21.25;100026.81;5317729;30;20264;-89
2022/04/21 10:19:02;;;;;;;8.40;7.60;;;;;;;22.69;22.66;100013.09;5478711;32;33787;-89
2022/04/21 10:22:11;;;;;;;8.43;7.62;;;;;;;21.14;24.61;100022.56;5481368;32;33999;-89
2022/04/21 10:25:14;;;;;;;8.63;7.20;;;;;;;21.34;25.19;100018.84;5492054;32;35328;-91
2022/04/21 10:35:40;;;;;;;6.20;5.60;;;;;;;21.92;22.74;100017.44;5339690;30;20108;-88
2022/04/21 10:39:04;;;;;;;7.80;5.72;;;;;;;22.62;21.51;100021.00;5495506;32;34055;-88
2022/04/21 10:42:06;;;;;;;6.00;5.37;;;;;;;23.99;21.10;100004.50;5489267;32;33661;-87
2022/04/21 10:45:13;;;;;;;6.55;5.80;;;;;;;26.89;18.90;100001.19;5498707;32;33836;-88
2022/04/21 10:48:16;;;;;;;6.40;5.80;;;;;;;27.01;18.10;99994.22;5513091;32;33945;-87
2022/04/21 10:51:41;;;;;;;6.22;5.62;;;;;;;23.71;20.15;99996.75;5483736;32;33798;-86
2022/04/21 11:13:06;;;;;;;6.43;5.82;;;;;;;18.92;25.46;99973.56;980960;26;21357;-89
2022/04/21 11:16:09;;;;;;;9.23;6.78;;;;;;;19.99;25.29;99969.06;5479550;27;31734;-89
2022/04/21 11:19:28;;;;;;;6.95;6.12;;;;;;;20.55;23.29;99976.28;5495308;32;32173;-89
2022/04/21 11:22:40;;;;;;;7.28;6.62;;;;;;;19.51;25.23;99976.25;5574294;27;32760;-88
2022/04/21 11:25:44;;;;;;;7.10;6.35;;;;;;;18.60;25.95;99967.44;5472382;32;34175;-88
2022/04/21 11:28:48;;;;;;;6.40;5.80;;;;;;;18.73;26.38;99967.19;5483040;32;35075;-90
2022/04/21 11:31:55;;;;;;;8.80;6.25;;;;;;;19.22;26.25;99964.53;5487519;32;33489;-89
2022/04/21 11:38:43;;;;;;;6.97;6.12;;;;;;;19.02;26.61;99957.44;4037117;30;20435;-87
2022/04/21 11:41:48;;;;;;;7.00;6.00;;;;;;;18.91;26.52;99970.00;5489477;32;34499;-89
2022/04/21 11:44:51;;;;;;;6.85;6.07;;;;;;;18.70;26.32;99956.69;5476061;32;33894;-87
2022/04/21 11:47:56;;;;;;;7.68;6.70;;;;;;;18.86;26.26;99956.19;5487253;32;32906;-86
2022/04/21 11:51:00;;;;;;;6.72;6.12;;;;;;;18.51;26.04;99958.38;5465246;32;32787;-87
2022/04/21 11:54:08;;;;;;;10.05;6.35;;;;;;;18.13;27.30;99957.28;5476259;32;32727;-86
2022/04/21 11:57:11;;;;;;;8.13;7.07;;;;;;;17.87;27.33;99961.28;5471064;32;32775;-87
2022/04/21 12:00:16;;;;;;;8.23;7.30;;;;;;;18.29;27.34;99946.03;5484578;32;34044;-87
2022/04/21 12:06:44;;;;;;;7.80;7.00;;;;;;;17.46;28.61;99949.59;5468197;32;32745;-87
2022/04/21 12:09:53;;;;;;;8.30;7.28;;;;;;;16.76;29.86;99942.00;5477653;32;31759;-86
2022/04/21 12:12:56;;;;;;;7.65;6.82;;;;;;;17.23;29.81;99939.87;5491397;32;33878;-86
2022/04/21 12:15:58;;;;;;;7.93;7.12;;;;;;;17.89;28.75;99945.00;5489730;32;34523;-86
2022/04/21 12:19:17;;;;;;;7.50;6.72;;;;;;;17.91;28.54;99946.56;5486195;32;34699;-86
2022/04/21 12:22:32;;;;;;;7.85;7.12;;;;;;;18.04;28.76;99924.87;5477629;32;32593;-87
2022/04/21 12:25:34;;;;;;;7.85;7.03;;;;;;;17.92;28.81;99925.97;5477282;32;34141;-91
2022/04/21 12:28:47;;;;;;;8.30;7.25;;;;;;;16.82;30.05;99928.09;5479434;32;34167;-90
2022/04/21 12:31:55;;;;;;;9.48;7.25;;;;;;;16.71;30.54;99926.31;5474366;32;34375;-85
2022/04/21 12:34:59;;;;;;;11.50;8.95;;;;;;;17.03;30.56;99927.28;5479686;32;34217;-85
2022/04/21 12:41:24;;;;;;;10.07;8.77;;;;;;;16.37;31.53;99921.91;5479418;32;34503;-84
2022/04/21 12:44:27;;;;;;;9.75;8.80;;;;;;;16.59;31.48;99921.97;5482286;32;33722;-86
2022/04/21 12:47:41;;;;;;;9.98;8.80;;;;;;;16.23;31.75;99927.50;5490163;32;34469;-85
2022/04/21 12:50:44;;;;;;;12.52;8.68;;;;;;;16.33;32.04;99924.97;5483861;32;35422;-86
2022/04/21 12:53:57;;;;;;;9.30;8.32;;;;;;;16.51;31.49;99936.84;5468300;32;34702;-86
2022/04/21 12:57:00;;;;;;;9.50;8.60;;;;;;;16.69;31.73;99923.75;5490461;32;34372;-86
2022/04/21 13:00:06;;;;;;;8.65;7.75;;;;;;;16.62;31.02;99927.06;5476026;32;34253;-85
2022/04/21 13:03:11;;;;;;;9.85;8.50;;;;;;;16.37;32.18;99927.25;5476494;32;32929;-85
2022/04/21 13:06:25;;;;;;;8.88;7.97;;;;;;;16.03;31.38;99935.31;5494751;32;33999;-86
2022/04/21 13:09:28;;;;;;;10.20;8.60;;;;;;;16.14;31.90;99926.47;5490316;32;34568;-86
2022/04/21 13:12:33;;;;;;;12.20;8.80;;;;;;;16.05;32.09;99921.84;5473844;32;35121;-86
2022/04/21 13:15:36;;;;;;;13.70;7.97;;;;;;;16.21;31.67;99926.78;5460012;32;33048;-86
2022/04/21 13:18:39;;;;;;;12.82;8.50;;;;;;;16.44;32.27;99915.06;5485294;32;34316;-86
2022/04/21 13:21:55;;;;;;;8.55;7.75;;;;;;;16.52;31.77;99926.97;5491072;32;34672;-86
2022/04/21 13:24:58;;;;;;;8.77;7.87;;;;;;;16.00;31.03;99920.38;5476074;32;33054;-85
2022/04/21 13:28:01;;;;;;;10.20;8.63;;;;;;;15.81;31.70;99922.78;5461301;32;33224;-85
2022/04/21 13:34:26;;;;;;;9.05;7.90;;;;;;;15.29;32.85;99920.53;5486499;32;34315;-91
2022/04/21 13:37:29;;;;;;;11.60;7.45;;;;;;;15.50;32.59;99928.72;5476009;32;33542;-87
2022/04/21 13:40:31;;;;;;;8.68;7.45;;;;;;;15.97;32.70;99919.75;5476601;32;34218;-87
2022/04/21 13:43:34;;;;;;;9.13;7.60;;;;;;;16.29;31.61;99922.53;5465129;32;32511;-87
2022/04/21 13:46:57;;;;;;;7.80;6.87;;;;;;;16.48;31.03;99920.16;5468517;32;33284;-85
2022/04/21 13:50:00;;;;;;;7.97;7.18;;;;;;;16.70;31.26;99913.91;5474823;32;32525;-87
2022/04/21 13:53:03;;;;;;;7.93;7.12;;;;;;;16.46;31.44;99916.75;5461119;32;33014;-86
2022/04/21 13:56:06;;;;;;;9.75;7.12;;;;;;;16.48;31.61;99910.31;5485135;32;33899;-88
2022/04/21 13:59:13;;;;;;;7.97;7.18;;;;;;;16.23;31.31;99914.12;5493824;32;33943;-88
2022/04/21 14:02:16;;;;;;;9.02;7.78;;;;;;;15.88;31.94;99916.81;5473132;32;33290;-89
2022/04/21 14:05:19;;;;;;;11.15;8.75;;;;;;;16.08;31.31;99909.06;5501335;32;34441;-87
2022/04/21 14:08:22;;;;;;;9.40;7.47;;;;;;;15.71;31.24;99907.47;5483234;32;34115;-87
2022/04/21 14:11:25;;;;;;;8.27;6.93;;;;;;;15.80;32.21;99905.03;5476300;32;33893;-87
2022/04/21 14:14:28;;;;;;;7.78;6.97;;;;;;;16.29;32.15;99900.25;5467087;32;33821;-87
2022/04/21 14:17:31;;;;;;;7.12;6.43;;;;;;;16.19;31.85;99908.19;5472928;32;33138;-87
2022/04/21 14:20:34;;;;;;;7.18;6.20;;;;;;;16.62;31.14;99900.28;5490532;32;34102;-87
2022/04/21 14:23:37;;;;;;;7.75;6.18;;;;;;;16.73;31.17;99894.06;5500298;32;33952;-87
2022/04/21 14:26:40;;;;;;;7.55;6.18;;;;;;;16.65;31.51;99900.03;5485557;32;35516;-87
2022/04/21 14:29:43;;;;;;;7.22;6.53;;;;;;;16.92;31.21;99896.88;5478833;32;35262;-86
2022/04/21 14:32:47;;;;;;;8.63;6.10;;;;;;;16.57;30.84;99896.19;5481740;32;33893;-87
2022/04/21 14:35:50;;;;;;;6.90;5.35;;;;;;;16.32;31.32;99896.47;5492843;32;34146;-87
2022/04/21 14:44:04;;;;;;;10.23;6.97;;;;;;;16.11;32.51;99905.28;5488872;32;34620;-87
2022/04/21 14:45:37;;;;;;;9.88;7.15;;;;;;;16.10;32.07;99903.59;5474445;32;34162;-86
2022/04/21 14:48:40;;;;;;;9.85;6.20;;;;;;;16.28;32.23;99898.56;5478280;32;33674;-86
2022/04/21 14:51:44;;;;;;;8.20;6.53;;;;;;;16.28;32.30;99901.22;5475106;32;34015;-87
2022/04/21 14:54:48;;;;;;;8.10;6.75;;;;;;;16.40;31.91;99902.06;5461162;32;32596;-86
2022/04/21 14:57:51;;;;;;;8.85;7.28;;;;;;;16.30;32.36;99900.13;5475281;32;33813;-86
2022/04/21 15:00:54;;;;;;;7.87;7.00;;;;;;;16.28;31.91;99904.78;5475316;32;33936;-86
2022/04/21 15:03:58;;;;;;;7.20;6.07;;;;;;;16.03;33.03;99908.56;5474570;32;35293;-90
2022/04/21 15:07:03;;;;;;;9.60;6.93;;;;;;;16.29;32.04;99901.13;5463956;32;32361;-91
2022/04/21 15:10:05;;;;;;;8.07;6.60;;;;;;;16.27;32.24;99900.41;5460664;32;33562;-90
2022/04/21 15:13:09;;;;;;;10.82;6.50;;;;;;;16.21;32.24;99900.91;5461847;32;32680;-86
2022/04/21 15:16:12;;;;;;;7.40;6.37;;;;;;;16.13;32.24;99887.28;5474337;32;34150;-87
2022/04/21 15:19:16;;;;;;;7.40;6.70;;;;;;;16.34;32.03;99882.00;5474400;32;34022;-86
2022/04/21 15:22:20;;;;;;;7.35;6.30;;;;;;;16.13;31.76;99889.94;5461486;32;33278;-86
